createdAt,value
2017-10-30T00:04:41.532Z,48.00
2017-10-30T00:09:46.571Z,48.00
2017-10-30T00:14:51.578Z,48.00
2017-10-30T00:19:56.673Z,48.00
2017-10-30T00:25:01.482Z,48.00
2017-10-30T00:30:06.546Z,48.10
2017-10-30T00:35:11.385Z,48.10
2017-10-30T00:40:16.453Z,48.30
2017-10-30T00:45:21.196Z,48.10
2017-10-30T00:50:26.887Z,48.20
2017-10-30T01:00:37.336Z,49.30
2017-10-30T01:10:47.350Z,48.40
2017-10-30T01:15:52.762Z,48.30
2017-10-30T01:20:57.739Z,47.90
2017-10-30T01:26:02.456Z,47.90
2017-10-30T01:31:07.162Z,47.90
2017-10-30T01:36:12.800Z,47.70
2017-10-30T01:41:17.466Z,47.80
2017-10-30T01:46:22.515Z,47.80
2017-10-30T01:51:27.201Z,47.80
2017-10-30T01:56:32.267Z,47.60
2017-10-30T02:01:37.052Z,47.70
2017-10-30T02:06:42.516Z,47.80
2017-10-30T02:11:47.258Z,47.70
2017-10-30T02:16:52.310Z,47.90
2017-10-30T02:21:57.033Z,47.70
2017-10-30T02:27:02.472Z,47.60
2017-10-30T02:32:07.144Z,47.60
2017-10-30T02:42:16.943Z,47.70
2017-10-30T02:47:21.573Z,47.70
2017-10-30T02:52:26.284Z,44.70
2017-10-30T02:57:30.996Z,47.70
2017-10-30T03:02:36.375Z,47.80
2017-10-30T03:07:41.350Z,47.80
2017-10-30T03:12:46.760Z,47.80
2017-10-30T03:22:56.735Z,47.80
2017-10-30T03:28:01.436Z,47.80
2017-10-30T03:33:06.404Z,47.80
2017-10-30T03:38:11.172Z,47.80
2017-10-30T03:43:16.212Z,47.70
2017-10-30T03:48:21.124Z,47.80
2017-10-30T03:53:25.792Z,47.80
2017-10-30T03:58:30.736Z,47.90
2017-10-30T04:08:40.529Z,47.90
2017-10-30T04:13:45.203Z,47.90
2017-10-30T04:18:50.335Z,48.00
2017-10-30T04:23:54.983Z,48.00
2017-10-30T04:29:01.398Z,48.10
2017-10-30T04:34:06.064Z,47.90
2017-10-30T04:39:10.841Z,48.00
2017-10-30T04:44:15.584Z,48.10
2017-10-30T04:49:20.607Z,48.10
2017-10-30T04:54:25.650Z,48.10
2017-10-30T04:59:30.369Z,48.10
2017-10-30T05:04:35.037Z,48.10
2017-10-30T05:09:40.108Z,48.10
2017-10-30T05:14:44.828Z,48.10
2017-10-30T05:19:50.263Z,48.00
2017-10-30T05:24:55.240Z,48.10
2017-10-30T05:29:59.911Z,48.10
2017-10-30T05:35:04.931Z,48.10
2017-10-30T05:40:10.005Z,48.10
2017-10-30T05:45:15.348Z,48.10
2017-10-30T05:50:20.015Z,48.20
2017-10-30T06:00:30.208Z,48.00
2017-10-30T06:10:40.212Z,48.10
2017-10-30T06:20:50.306Z,48.10
2017-10-30T06:25:55.238Z,48.00
2017-10-30T06:30:59.909Z,48.10
2017-10-30T06:41:09.979Z,48.10
2017-10-30T06:46:14.743Z,50.30
2017-10-30T06:56:24.408Z,48.20
2017-10-30T07:06:34.496Z,48.20
2017-10-30T07:11:39.447Z,48.10
2017-10-30T07:16:44.116Z,48.20
2017-10-30T07:21:48.793Z,48.10
2017-10-30T07:26:53.832Z,48.10
2017-10-30T07:31:58.495Z,48.20
2017-10-30T07:37:03.473Z,48.20
2017-10-30T07:42:08.146Z,45.80
2017-10-30T07:47:12.901Z,48.20
2017-10-30T07:52:17.911Z,48.20
2017-10-30T07:57:22.677Z,48.10
2017-10-30T08:02:27.725Z,48.10
2017-10-30T08:07:32.409Z,48.40
2017-10-30T08:12:37.929Z,48.00
2017-10-30T08:17:42.622Z,48.10
2017-10-30T08:27:52.348Z,48.10
2017-10-30T08:32:57.035Z,48.10
2017-10-30T08:38:01.771Z,48.10
2017-10-30T08:48:11.862Z,48.00
2017-10-30T08:53:16.533Z,48.20
2017-10-30T09:03:26.486Z,48.10
2017-10-30T09:08:31.901Z,48.10
2017-10-30T09:13:36.611Z,48.10
2017-10-30T09:18:41.687Z,48.80
2017-10-30T09:28:51.678Z,42.50
2017-10-30T09:39:01.832Z,39.40
2017-10-30T09:44:06.610Z,35.50
2017-10-30T09:49:11.643Z,33.80
2017-10-30T09:54:16.361Z,36.50
2017-10-30T09:59:21.783Z,39.70
2017-10-30T10:09:31.540Z,42.80
2017-10-30T10:14:36.244Z,43.50
2017-10-30T10:19:41.809Z,43.80
2017-10-30T10:24:46.499Z,44.10
2017-10-30T10:29:51.557Z,44.20
2017-10-30T10:34:56.255Z,44.40
2017-10-30T10:40:01.686Z,44.50
2017-10-30T10:45:06.379Z,44.40
2017-10-30T10:50:11.452Z,44.40
2017-10-30T10:55:16.543Z,44.70
2017-10-30T11:05:26.272Z,44.50
2017-10-30T11:10:31.641Z,44.70
2017-10-30T11:15:36.309Z,44.70
2017-10-30T11:20:41.373Z,44.60
2017-10-30T11:25:46.042Z,44.10
2017-10-30T11:30:50.778Z,37.50
2017-10-30T11:35:55.503Z,42.90
2017-10-30T11:41:00.470Z,43.60
2017-10-30T11:46:05.521Z,44.20
2017-10-30T11:51:10.222Z,43.70
2017-10-30T11:56:15.663Z,43.60
2017-10-30T12:01:20.331Z,43.50
2017-10-30T12:06:25.762Z,43.50
2017-10-30T12:16:35.840Z,43.70
2017-10-30T12:26:45.829Z,43.40
2017-10-30T12:31:50.603Z,43.60
2017-10-30T12:36:55.300Z,43.30
2017-10-30T12:47:05.445Z,43.40
2017-10-30T12:52:10.093Z,43.80
2017-10-30T12:57:15.140Z,43.50
2017-10-30T13:02:20.052Z,43.10
2017-10-30T13:07:25.484Z,43.40
2017-10-30T13:12:30.166Z,43.10
2017-10-30T13:17:35.239Z,43.20
2017-10-30T13:22:40.268Z,43.30
2017-10-30T13:27:45.336Z,43.20
2017-10-30T13:32:50.013Z,43.20
2017-10-30T13:37:55.537Z,43.00
2017-10-30T13:43:00.533Z,43.10
2017-10-30T13:48:05.236Z,43.00
2017-10-30T13:53:09.914Z,43.20
2017-10-30T13:58:15.319Z,42.90
2017-10-30T14:03:19.989Z,43.00
2017-10-30T14:08:25.011Z,43.00
2017-10-30T14:13:29.691Z,42.80
2017-10-30T14:18:34.357Z,43.00
2017-10-30T14:23:39.010Z,42.70
2017-10-30T14:28:43.784Z,43.00
2017-10-30T14:38:53.474Z,42.90
2017-10-30T14:49:31.054Z,43.00
2017-10-30T14:54:36.028Z,42.80
2017-10-30T14:59:41.062Z,42.80
2017-10-30T15:04:45.744Z,42.60
2017-10-30T15:09:50.408Z,42.50
2017-10-30T15:14:55.855Z,42.60
2017-10-30T15:20:01.261Z,42.50
2017-10-30T15:25:05.924Z,43.20
2017-10-30T15:30:11.282Z,43.00
2017-10-30T15:35:16.500Z,42.80
2017-10-30T15:40:21.176Z,42.90
2017-10-30T15:45:25.867Z,42.80
2017-10-30T15:50:31.289Z,43.00
2017-10-30T15:55:35.968Z,42.40
2017-10-30T16:00:40.973Z,42.30
2017-10-30T16:05:45.644Z,42.50
2017-10-30T16:10:51.049Z,42.70
2017-10-30T16:15:55.750Z,42.80
2017-10-30T16:21:01.204Z,44.10
2017-10-30T16:26:05.876Z,43.00
2017-10-30T16:31:10.545Z,43.10
2017-10-30T16:36:15.228Z,43.60
2017-10-30T16:41:19.879Z,43.30
2017-10-30T16:46:25.188Z,43.40
2017-10-30T16:51:29.858Z,43.50
2017-10-30T16:56:35.515Z,43.40
2017-10-30T17:01:40.558Z,43.60
2017-10-30T17:06:45.387Z,43.60
2017-10-30T17:11:50.056Z,43.70
2017-10-30T17:16:54.720Z,43.70
2017-10-30T17:21:59.392Z,43.90
2017-10-30T17:27:04.812Z,43.80
2017-10-30T17:37:14.963Z,44.00
2017-10-30T17:42:19.647Z,44.00
2017-10-30T17:47:25.019Z,44.10
2017-10-30T17:57:34.798Z,44.30
2017-10-30T18:02:39.474Z,44.40
2017-10-30T18:07:44.152Z,44.40
2017-10-30T18:12:48.926Z,44.50
2017-10-30T18:17:53.671Z,47.00
2017-10-30T18:22:58.733Z,44.50
2017-10-30T18:33:08.843Z,44.50
2017-10-30T18:38:13.877Z,44.50
2017-10-30T18:43:18.556Z,44.60
2017-10-30T18:48:23.249Z,44.70
2017-10-30T18:53:27.918Z,44.70
2017-10-30T18:58:33.007Z,29.30
2017-10-30T19:03:37.670Z,36.60
2017-10-30T19:18:52.800Z,37.50
2017-10-30T19:23:57.478Z,36.80
2017-10-30T19:29:02.519Z,37.20
2017-10-30T19:34:07.191Z,36.50
2017-10-30T19:39:11.861Z,35.90
2017-10-30T19:44:16.730Z,35.70
2017-10-30T19:49:21.423Z,35.70
2017-10-30T19:59:31.498Z,35.60
2017-10-30T20:04:36.550Z,35.30
2017-10-30T20:15:17.900Z,35.40
2017-10-30T20:20:22.562Z,35.40
2017-10-30T20:25:27.561Z,35.10
2017-10-30T20:30:32.593Z,35.00
2017-10-30T20:35:37.664Z,34.80
2017-10-30T20:50:52.528Z,34.60
2017-10-30T21:01:02.635Z,34.40
2017-10-30T21:11:13.401Z,34.90
2017-10-30T21:16:18.768Z,34.00
2017-10-30T21:21:23.478Z,35.30
2017-10-30T21:36:38.613Z,36.50
2017-10-30T21:46:48.784Z,33.90
2017-10-30T21:51:53.687Z,30.40
2017-10-30T21:56:58.471Z,33.60
2017-10-30T22:02:03.124Z,33.60
2017-10-30T22:07:08.546Z,33.30
2017-10-30T22:12:13.317Z,33.30
2017-10-30T22:17:18.507Z,33.20
2017-10-30T22:22:23.171Z,33.40
2017-10-30T22:27:28.974Z,33.20
2017-10-30T22:32:33.633Z,33.20
2017-10-30T22:37:38.636Z,33.00
2017-10-30T22:42:44.272Z,33.00
2017-10-30T22:52:54.723Z,33.20
2017-10-30T23:13:15.517Z,36.90
2017-10-30T23:18:20.441Z,37.10
2017-10-30T23:28:30.919Z,37.50
2017-10-30T23:33:36.347Z,37.80
2017-10-30T23:43:47.091Z,38.30
2017-10-30T23:48:52.131Z,38.50
2017-10-30T23:53:56.871Z,38.60
2017-10-30T23:59:02.263Z,38.70
